createdAt,value
2022-08-17T00:01:26.216Z,75.36
2022-08-17T00:03:54.445Z,75.82
2022-08-17T00:06:28.308Z,76.46
2022-08-17T00:08:57.117Z,75.91
2022-08-17T00:11:30.831Z,75.71
2022-08-17T00:14:00.933Z,75.87
2022-08-17T00:16:56.728Z,75.63
2022-08-17T00:19:25.090Z,74.92
2022-08-17T00:22:29.823Z,74.62
2022-08-17T00:24:39.718Z,74.81
2022-08-17T00:27:06.120Z,74.87
2022-08-17T00:29:32.523Z,74.39
2022-08-17T00:31:58.915Z,74.29
2022-08-17T00:34:25.484Z,73.83
2022-08-17T00:36:54.367Z,73.75
2022-08-17T00:39:20.787Z,73.80
2022-08-17T00:41:47.612Z,73.99
2022-08-17T00:44:15.474Z,74.14
2022-08-17T00:46:43.531Z,74.53
2022-08-17T00:49:11.404Z,75.08
2022-08-17T00:51:55.247Z,74.42
2022-08-17T00:54:31.481Z,74.35
2022-08-17T00:57:05.618Z,74.17
2022-08-17T01:02:09.492Z,74.33
2022-08-17T01:04:36.338Z,74.15
2022-08-17T01:07:04.345Z,74.14
2022-08-17T01:09:31.466Z,75.15
2022-08-17T01:11:57.928Z,75.26
2022-08-17T01:14:25.664Z,74.92
2022-08-17T01:16:54.867Z,75.24
2022-08-17T01:19:30.253Z,75.63
2022-08-17T01:22:08.102Z,75.62
2022-08-17T01:24:39.946Z,75.19
2022-08-17T01:27:10.181Z,74.87
2022-08-17T01:29:38.857Z,74.93
2022-08-17T01:32:07.123Z,75.28
2022-08-17T01:34:36.825Z,75.54
2022-08-17T01:37:09.493Z,75.29
2022-08-17T01:39:45.638Z,75.60
2022-08-17T01:42:31.450Z,74.90
2022-08-17T01:45:00.403Z,74.73
2022-08-17T01:47:26.854Z,74.59
2022-08-17T01:49:56.394Z,74.38
2022-08-17T01:52:23.731Z,73.57
2022-08-17T01:54:51.324Z,73.53
2022-08-17T01:57:18.063Z,74.44
2022-08-17T01:59:44.534Z,74.21
2022-08-17T02:04:51.623Z,74.36
2022-08-17T02:07:18.238Z,74.20
2022-08-17T02:09:52.753Z,73.36
2022-08-17T02:12:38.830Z,73.61
2022-08-17T02:15:07.911Z,74.97
2022-08-17T02:17:35.038Z,75.92
2022-08-17T02:20:01.555Z,76.69
2022-08-17T02:22:28.785Z,78.53
2022-08-17T02:24:58.534Z,81.33
2022-08-17T02:27:25.761Z,82.10
2022-08-17T02:29:52.233Z,84.18
2022-08-17T02:32:28.256Z,84.31
2022-08-17T02:34:56.454Z,85.18
2022-08-17T02:37:22.852Z,85.59
2022-08-17T02:39:49.340Z,84.80
2022-08-17T02:42:15.842Z,86.17
2022-08-17T02:44:42.465Z,86.03
2022-08-17T02:47:10.118Z,86.58
2022-08-17T02:49:37.177Z,86.34
2022-08-17T02:52:06.578Z,86.84
2022-08-17T02:54:40.354Z,87.53
2022-08-17T02:57:08.450Z,88.02
2022-08-17T02:59:35.226Z,87.44
2022-08-17T03:02:04.010Z,87.38
2022-08-17T03:04:31.124Z,87.02
2022-08-17T03:07:03.696Z,86.21
2022-08-17T03:09:30.192Z,87.37
2022-08-17T03:12:05.246Z,87.26
2022-08-17T03:14:32.389Z,87.28
2022-08-17T03:16:59.198Z,87.50
2022-08-17T03:19:25.663Z,86.78
2022-08-17T03:21:54.947Z,86.98
2022-08-17T03:24:22.097Z,86.61
2022-08-17T03:26:55.387Z,86.43
2022-08-17T03:29:21.872Z,86.63
2022-08-17T03:31:49.345Z,86.19
2022-08-17T03:34:16.449Z,85.93
2022-08-17T03:36:42.920Z,85.64
2022-08-17T03:39:09.594Z,86.19
2022-08-17T03:41:36.066Z,87.48
2022-08-17T03:44:02.633Z,87.25
2022-08-17T03:46:47.738Z,87.14
2022-08-17T03:49:32.782Z,87.09
2022-08-17T03:52:17.871Z,87.59
2022-08-17T03:55:03.545Z,87.43
2022-08-17T03:57:31.312Z,87.62
2022-08-17T03:59:59.682Z,87.87
2022-08-17T04:02:31.813Z,87.59
2022-08-17T04:04:59.044Z,88.53
2022-08-17T04:07:27.885Z,88.62
2022-08-17T04:09:54.443Z,88.09
2022-08-17T04:12:22.925Z,88.41
2022-08-17T04:14:52.677Z,88.05
2022-08-17T04:17:27.625Z,88.04
2022-08-17T04:19:54.912Z,87.95
2022-08-17T04:22:30.226Z,88.09
2022-08-17T04:25:20.513Z,88.00
2022-08-17T04:27:48.655Z,88.35
2022-08-17T04:30:15.544Z,88.71
2022-08-17T04:33:04.099Z,88.82
2022-08-17T04:35:39.113Z,88.82
2022-08-17T04:38:09.090Z,88.77
2022-08-17T04:40:54.098Z,88.49
2022-08-17T04:43:23.462Z,88.20
2022-08-17T04:45:59.056Z,88.71
2022-08-17T04:48:35.651Z,88.39
2022-08-17T04:51:09.753Z,88.69
2022-08-17T04:53:36.564Z,89.02
2022-08-17T04:56:03.613Z,88.46
2022-08-17T04:58:30.071Z,88.44
2022-08-17T05:00:56.640Z,87.65
2022-08-17T05:03:23.122Z,87.27
2022-08-17T05:05:49.982Z,86.75
2022-08-17T05:08:18.994Z,87.25
2022-08-17T05:10:45.809Z,87.13
2022-08-17T05:13:21.623Z,86.63
2022-08-17T05:15:48.496Z,87.60
2022-08-17T05:18:16.541Z,86.67
2022-08-17T05:20:43.950Z,86.09
2022-08-17T05:23:14.659Z,86.42
2022-08-17T05:25:47.629Z,86.36
2022-08-17T05:28:15.913Z,86.18
2022-08-17T05:30:43.658Z,86.59
2022-08-17T05:33:14.189Z,86.85
2022-08-17T05:35:43.967Z,87.13
2022-08-17T05:38:10.772Z,87.04
2022-08-17T05:40:37.326Z,86.68
2022-08-17T05:43:09.398Z,86.57
2022-08-17T05:45:55.400Z,87.07
2022-08-17T05:48:39.144Z,86.77
2022-08-17T05:51:16.034Z,86.17
2022-08-17T05:53:52.371Z,86.41
2022-08-17T05:56:30.450Z,86.89
2022-08-17T05:59:14.867Z,87.00
2022-08-17T06:02:10.775Z,86.75
2022-08-17T06:05:09.612Z,86.80
2022-08-17T06:07:39.771Z,86.97
2022-08-17T06:10:32.146Z,86.62
2022-08-17T06:13:17.476Z,86.99
2022-08-17T06:16:28.195Z,86.65
2022-08-17T06:18:57.418Z,86.87
2022-08-17T06:21:27.459Z,86.19
2022-08-17T06:24:17.638Z,86.07
2022-08-17T06:26:45.675Z,86.33
2022-08-17T06:29:23.917Z,85.88
2022-08-17T06:31:51.017Z,85.73
2022-08-17T06:34:17.497Z,85.90
2022-08-17T06:37:03.763Z,86.44
2022-08-17T06:39:54.131Z,85.70
2022-08-17T06:43:05.026Z,85.42
2022-08-17T06:45:38.027Z,85.00
2022-08-17T06:48:19.093Z,84.21
2022-08-17T06:51:17.766Z,83.66
2022-08-17T06:54:23.007Z,84.41
2022-08-17T06:57:01.877Z,85.52
2022-08-17T06:59:54.741Z,85.42
2022-08-17T07:03:02.324Z,85.71
2022-08-17T07:06:28.186Z,84.87
2022-08-17T07:09:16.511Z,83.71
2022-08-17T07:11:57.603Z,84.13
2022-08-17T07:14:34.342Z,84.78
2022-08-17T07:17:06.659Z,84.15
2022-08-17T07:19:59.482Z,84.21
2022-08-17T07:22:57.649Z,83.86
2022-08-17T07:25:27.435Z,83.79
2022-08-17T07:27:56.060Z,83.15
2022-08-17T07:30:23.668Z,82.33
2022-08-17T07:33:05.077Z,82.13
2022-08-17T07:35:41.197Z,83.16
2022-08-17T07:38:25.813Z,82.78
2022-08-17T07:40:57.584Z,83.14
2022-08-17T07:43:29.720Z,83.15
2022-08-17T07:46:35.304Z,83.95
2022-08-17T07:49:07.345Z,83.19
2022-08-17T07:51:45.515Z,83.65
2022-08-17T07:54:28.799Z,83.28
2022-08-17T07:57:09.965Z,83.65
2022-08-17T08:00:12.805Z,83.77
2022-08-17T08:03:05.624Z,84.72
2022-08-17T08:05:57.879Z,83.78
2022-08-17T08:08:38.376Z,83.64
2022-08-17T08:11:32.351Z,83.59
2022-08-17T08:14:28.572Z,83.97
2022-08-17T08:17:11.344Z,83.37
2022-08-17T08:19:43.114Z,83.63
2022-08-17T08:22:16.474Z,82.25
2022-08-17T08:25:31.946Z,80.84
2022-08-17T08:28:15.970Z,81.05
2022-08-17T08:30:47.141Z,81.60
2022-08-17T08:33:37.696Z,80.16
2022-08-17T08:37:12.629Z,78.17
2022-08-17T08:39:39.080Z,78.21
2022-08-17T08:42:15.845Z,78.06
2022-08-17T08:45:16.929Z,76.65
2022-08-17T08:48:05.535Z,76.33
2022-08-17T08:50:57.693Z,76.28
2022-08-17T08:54:04.748Z,76.64
2022-08-17T08:57:11.855Z,76.53
2022-08-17T08:59:57.795Z,75.67
2022-08-17T09:02:49.538Z,75.79
2022-08-17T09:05:44.104Z,74.29
2022-08-17T09:08:27.378Z,74.47
2022-08-17T09:11:15.137Z,73.81
2022-08-17T09:13:56.069Z,76.22
2022-08-17T09:16:32.070Z,75.71
2022-08-17T09:19:21.593Z,74.35
2022-08-17T09:21:55.244Z,74.35
2022-08-17T09:24:46.205Z,74.88
2022-08-17T09:27:27.597Z,74.39
2022-08-17T09:30:04.131Z,74.29
2022-08-17T09:32:42.701Z,73.03
2022-08-17T09:35:15.835Z,73.88
2022-08-17T09:38:19.565Z,71.88
2022-08-17T09:40:54.477Z,72.35
2022-08-17T09:43:43.044Z,72.17
2022-08-17T09:46:15.992Z,72.48
2022-08-17T09:48:52.601Z,74.81
2022-08-17T09:51:48.990Z,74.31
2022-08-17T09:54:44.500Z,76.82
2022-08-17T09:57:30.434Z,78.55
2022-08-17T10:00:27.491Z,80.20
2022-08-17T10:03:25.266Z,81.07
2022-08-17T10:06:08.292Z,80.00
2022-08-17T10:08:41.563Z,80.12
2022-08-17T10:11:33.495Z,81.11
2022-08-17T10:14:37.296Z,81.63
2022-08-17T10:17:24.422Z,80.78
2022-08-17T10:20:09.088Z,80.59
2022-08-17T10:23:11.698Z,82.43
2022-08-17T10:26:04.395Z,82.04
2022-08-17T10:28:39.584Z,80.90
2022-08-17T10:34:24.421Z,80.71
2022-08-17T10:37:16.864Z,80.21
2022-08-17T10:40:04.139Z,79.58
2022-08-17T10:42:48.941Z,78.63
2022-08-17T10:45:17.226Z,78.32
2022-08-17T10:48:06.313Z,76.60
2022-08-17T10:50:47.934Z,74.46
2022-08-17T10:53:40.417Z,73.15
2022-08-17T10:56:13.090Z,74.46
2022-08-17T10:59:00.576Z,74.54
2022-08-17T11:01:33.858Z,73.93
2022-08-17T11:04:28.937Z,71.66
2022-08-17T11:07:23.536Z,73.04
2022-08-17T11:10:08.435Z,70.93
2022-08-17T11:12:40.060Z,73.30
2022-08-17T11:15:48.341Z,72.92
2022-08-17T11:18:38.765Z,72.25
2022-08-17T11:21:43.810Z,71.81
2022-08-17T11:24:23.131Z,71.80
2022-08-17T11:27:22.619Z,72.04
2022-08-17T11:30:01.429Z,72.82
2022-08-17T11:32:47.242Z,72.21
2022-08-17T11:35:17.424Z,73.16
2022-08-17T11:38:03.628Z,75.55
2022-08-17T11:40:44.449Z,75.31
2022-08-17T11:43:25.554Z,75.48
2022-08-17T11:46:03.680Z,75.70
2022-08-17T11:49:13.458Z,76.60
2022-08-17T11:52:04.839Z,76.24
2022-08-17T11:55:12.210Z,78.28
2022-08-17T11:57:45.208Z,79.23
2022-08-17T12:00:46.757Z,79.60
2022-08-17T12:03:36.782Z,79.66
2022-08-17T12:06:37.602Z,80.22
2022-08-17T12:09:17.906Z,80.38
2022-08-17T12:12:13.287Z,80.71
2022-08-17T12:15:09.135Z,79.94
2022-08-17T12:17:40.862Z,80.04
2022-08-17T12:20:12.522Z,79.68
2022-08-17T12:22:53.641Z,80.13
2022-08-17T12:25:21.719Z,81.05
2022-08-17T12:28:04.911Z,81.12
2022-08-17T12:30:34.338Z,81.40
2022-08-17T12:33:02.222Z,82.17
2022-08-17T12:35:35.762Z,82.42
2022-08-17T12:38:32.163Z,82.64
2022-08-17T12:40:57.925Z,83.69
2022-08-17T12:43:27.439Z,83.41
2022-08-17T12:46:13.230Z,84.20
2022-08-17T12:48:59.115Z,84.70
2022-08-17T12:51:28.901Z,84.85
2022-08-17T12:53:56.120Z,83.84
2022-08-17T12:56:22.757Z,84.06
2022-08-17T12:58:54.023Z,84.07
2022-08-17T13:01:20.786Z,84.63
2022-08-17T13:03:52.581Z,84.59
2022-08-17T13:12:28.305Z,85.28
2022-08-17T13:14:54.932Z,84.78
2022-08-17T13:17:35.922Z,83.91
2022-08-17T13:20:04.563Z,84.28
2022-08-17T13:22:32.447Z,84.64
2022-08-17T13:25:05.371Z,84.39
2022-08-17T13:27:33.023Z,84.06
2022-08-17T13:30:07.705Z,83.96
2022-08-17T13:32:43.973Z,84.71
2022-08-17T13:35:41.266Z,85.21
2022-08-17T13:38:11.677Z,85.65
2022-08-17T13:40:52.989Z,85.55
2022-08-17T13:43:38.509Z,85.30
2022-08-17T13:46:32.426Z,85.46
2022-08-17T13:49:03.301Z,86.27
2022-08-17T13:51:35.785Z,85.54
2022-08-17T13:54:04.443Z,85.91
2022-08-17T13:56:39.602Z,85.35
2022-08-17T13:59:09.775Z,85.88
2022-08-17T14:01:44.202Z,85.54
2022-08-17T14:04:19.546Z,85.88
2022-08-17T14:06:56.969Z,85.90
2022-08-17T14:09:37.253Z,86.59
2022-08-17T14:12:06.828Z,86.48
2022-08-17T14:14:33.348Z,86.66
2022-08-17T14:16:59.767Z,86.80
2022-08-17T14:19:26.410Z,85.80
2022-08-17T14:21:56.448Z,85.53
2022-08-17T14:24:31.763Z,85.83
2022-08-17T14:26:59.701Z,85.63
2022-08-17T14:29:29.240Z,86.06
2022-08-17T14:31:56.665Z,85.61
2022-08-17T14:34:24.472Z,85.25
2022-08-17T14:36:51.417Z,85.08
2022-08-17T14:39:18.645Z,85.42
2022-08-17T14:41:45.045Z,85.22
2022-08-17T14:44:12.429Z,84.59
2022-08-17T14:46:43.579Z,84.08
2022-08-17T14:49:11.830Z,84.40
2022-08-17T14:51:39.718Z,84.86
2022-08-17T14:54:11.678Z,85.04
2022-08-17T14:57:22.154Z,84.86
2022-08-17T14:59:44.469Z,84.97
2022-08-17T15:02:10.874Z,84.48
2022-08-17T15:04:40.799Z,83.68
2022-08-17T15:07:09.927Z,83.60
2022-08-17T15:09:36.585Z,82.02
2022-08-17T15:12:06.325Z,83.05
2022-08-17T15:14:34.010Z,82.12
2022-08-17T15:17:00.416Z,81.45
2022-08-17T15:19:26.852Z,80.74
2022-08-17T15:21:53.304Z,80.40
2022-08-17T15:24:19.755Z,79.74
2022-08-17T15:26:47.634Z,78.32
2022-08-17T15:29:14.574Z,78.87
2022-08-17T15:31:41.125Z,79.92
2022-08-17T15:34:07.957Z,80.14
2022-08-17T15:36:35.577Z,80.13
2022-08-17T15:39:03.078Z,80.66
2022-08-17T15:41:29.526Z,79.57
2022-08-17T15:43:56.362Z,78.74
2022-08-17T15:46:24.300Z,79.38
2022-08-17T15:48:53.428Z,79.37
2022-08-17T15:51:29.056Z,80.79
2022-08-17T15:54:04.540Z,81.42
2022-08-17T15:56:46.019Z,82.10
2022-08-17T15:59:12.479Z,81.28
2022-08-17T16:03:01.589Z,81.07
2022-08-17T16:04:30.528Z,80.90
2022-08-17T16:06:59.169Z,80.40
2022-08-17T16:09:25.576Z,80.90
2022-08-17T16:11:55.714Z,81.84
2022-08-17T16:14:24.197Z,81.62
2022-08-17T16:16:51.657Z,80.39
2022-08-17T16:19:18.062Z,79.82
2022-08-17T16:21:44.456Z,80.16
2022-08-17T16:24:13.262Z,80.00
2022-08-17T16:26:39.871Z,80.88
2022-08-17T16:29:06.906Z,81.46
2022-08-17T16:31:33.465Z,81.55
2022-08-17T16:34:16.024Z,82.45
2022-08-17T16:36:54.869Z,81.61
2022-08-17T16:39:24.216Z,81.25
2022-08-17T16:41:50.677Z,81.26
2022-08-17T16:44:21.459Z,81.34
2022-08-17T16:46:48.484Z,81.13
2022-08-17T16:49:35.332Z,80.73
2022-08-17T16:52:03.241Z,82.72
2022-08-17T16:54:29.661Z,82.64
2022-08-17T16:56:56.070Z,82.20
2022-08-17T16:59:31.352Z,82.67
2022-08-17T17:02:10.652Z,83.14
2022-08-17T17:04:45.799Z,83.38
2022-08-17T17:07:25.617Z,82.86
2022-08-17T17:09:55.332Z,83.14
2022-08-17T17:12:58.156Z,83.14
2022-08-17T17:15:09.444Z,82.98
2022-08-17T17:17:39.709Z,82.57
2022-08-17T17:20:12.149Z,82.65
2022-08-17T17:23:05.490Z,82.89
2022-08-17T17:25:39.579Z,82.41
2022-08-17T17:28:46.222Z,82.44
2022-08-17T17:31:18.632Z,82.50
2022-08-17T17:33:49.241Z,82.50
2022-08-17T17:36:30.070Z,82.50
2022-08-17T17:39:19.354Z,83.03
2022-08-17T17:41:56.510Z,83.25
2022-08-17T17:44:27.361Z,83.05
2022-08-17T17:46:57.096Z,83.59
2022-08-17T17:49:29.924Z,83.79
2022-08-17T17:52:08.001Z,83.78
2022-08-17T17:54:56.157Z,84.24
2022-08-17T17:57:26.346Z,84.01
2022-08-17T18:00:10.852Z,84.39
2022-08-17T18:02:53.152Z,85.21
2022-08-17T18:05:45.570Z,85.27
2022-08-17T18:08:34.740Z,85.71
2022-08-17T18:11:25.041Z,85.70
2022-08-17T18:14:14.408Z,85.92
2022-08-17T18:16:42.686Z,86.59
2022-08-17T18:19:14.152Z,86.52
2022-08-17T18:21:46.295Z,86.30
2022-08-17T18:24:13.820Z,86.57
2022-08-17T18:26:45.070Z,86.10
2022-08-17T18:29:23.201Z,85.96
2022-08-17T18:32:12.125Z,86.18
2022-08-17T18:34:47.037Z,86.39
2022-08-17T18:37:30.888Z,86.56
2022-08-17T18:39:57.390Z,86.61
2022-08-17T18:42:28.577Z,86.62
2022-08-17T18:44:55.773Z,86.98
2022-08-17T18:47:25.182Z,86.97
2022-08-17T18:49:57.562Z,86.78
2022-08-17T18:52:32.393Z,86.88
2022-08-17T18:55:10.316Z,87.14
2022-08-17T18:57:42.400Z,86.73
2022-08-17T19:00:20.137Z,87.23
2022-08-17T19:02:55.303Z,86.95
2022-08-17T19:05:35.408Z,87.62
2022-08-17T19:08:29.747Z,87.32
2022-08-17T19:11:02.776Z,87.52
2022-08-17T19:13:50.872Z,87.52
2022-08-17T19:16:29.153Z,87.40
2022-08-17T19:19:00.935Z,87.47
2022-08-17T19:21:43.354Z,87.37
2022-08-17T19:24:14.216Z,87.85
2022-08-17T19:26:50.927Z,88.26
2022-08-17T19:29:26.612Z,87.58
2022-08-17T19:31:58.395Z,87.91
2022-08-17T19:34:30.190Z,88.25
2022-08-17T19:37:03.749Z,88.72
2022-08-17T19:39:55.582Z,87.26
2022-08-17T19:42:42.395Z,86.81
2022-08-17T19:45:21.350Z,87.29
2022-08-17T19:47:57.765Z,87.54
2022-08-17T19:50:41.202Z,88.51
2022-08-17T19:53:20.548Z,88.39
2022-08-17T19:55:57.601Z,88.38
2022-08-17T19:58:28.350Z,88.23
2022-08-17T20:00:55.421Z,87.90
2022-08-17T20:03:39.756Z,87.84
2022-08-17T20:06:15.042Z,88.19
2022-08-17T20:09:04.042Z,87.93
2022-08-17T20:11:34.396Z,88.32
2022-08-17T20:14:06.255Z,88.58
2022-08-17T20:16:33.753Z,88.52
2022-08-17T20:19:21.505Z,88.36
2022-08-17T20:22:00.039Z,88.65
2022-08-17T20:24:37.787Z,88.43
2022-08-17T20:27:13.629Z,87.83
2022-08-17T20:30:02.363Z,88.07
2022-08-17T20:32:35.270Z,87.99
2022-08-17T20:35:25.738Z,87.73
2022-08-17T20:38:04.841Z,87.52
2022-08-17T20:40:55.138Z,87.59
2022-08-17T20:43:34.686Z,88.49
2022-08-17T20:46:17.782Z,87.48
2022-08-17T20:48:46.865Z,87.72
2022-08-17T20:51:27.015Z,87.58
2022-08-17T20:53:56.338Z,87.65
2022-08-17T20:56:47.782Z,87.96
2022-08-17T20:59:27.473Z,88.03
2022-08-17T21:02:08.898Z,88.13
2022-08-17T21:04:51.248Z,88.11
2022-08-17T21:07:29.706Z,88.26
2022-08-17T21:10:10.938Z,87.97
2022-08-17T21:12:55.828Z,88.17
2022-08-17T21:15:49.750Z,87.96
2022-08-17T21:18:27.183Z,87.72
2022-08-17T21:21:19.720Z,87.42
2022-08-17T21:24:04.558Z,88.05
2022-08-17T21:27:03.060Z,87.65
2022-08-17T21:29:33.799Z,87.55
2022-08-17T21:32:03.738Z,87.68
2022-08-17T21:34:34.231Z,87.69
2022-08-17T21:37:18.963Z,87.64
2022-08-17T21:40:00.207Z,87.72
2022-08-17T21:42:29.813Z,88.14
2022-08-17T21:44:57.923Z,88.67
2022-08-17T21:47:29.064Z,88.36
2022-08-17T21:49:56.567Z,88.15
2022-08-17T21:52:24.880Z,87.89
2022-08-17T21:55:02.678Z,88.06
2022-08-17T21:57:41.861Z,87.91
2022-08-17T22:00:31.408Z,87.53
2022-08-17T22:02:58.869Z,88.21
2022-08-17T22:05:37.158Z,88.78
2022-08-17T22:08:18.673Z,88.46
2022-08-17T22:10:48.919Z,88.28
2022-08-17T22:13:21.940Z,88.36
2022-08-17T22:16:28.060Z,88.28
2022-08-17T22:18:54.507Z,88.64
2022-08-17T22:21:22.523Z,88.67
2022-08-17T22:24:21.322Z,88.51
2022-08-17T22:27:02.265Z,88.39
2022-08-17T22:29:44.015Z,88.68
2022-08-17T22:32:10.582Z,88.98
2022-08-17T22:34:38.421Z,88.80
2022-08-17T22:37:27.333Z,89.26
2022-08-17T22:39:59.085Z,89.03
2022-08-17T22:42:25.639Z,89.48
2022-08-17T22:44:54.017Z,89.53
2022-08-17T22:47:38.774Z,88.95
2022-08-17T22:50:13.094Z,88.76
2022-08-17T22:53:01.701Z,88.92
2022-08-17T22:55:49.426Z,88.39
2022-08-17T22:58:37.477Z,88.98
2022-08-17T23:01:22.717Z,89.64
2022-08-17T23:03:57.423Z,89.58
2022-08-17T23:06:24.327Z,89.73
2022-08-17T23:08:56.188Z,89.26
2022-08-17T23:11:36.657Z,89.16
2022-08-17T23:14:15.581Z,89.21
2022-08-17T23:16:42.661Z,89.71
2022-08-17T23:19:16.534Z,89.24
2022-08-17T23:21:46.257Z,89.25
2022-08-17T23:24:17.504Z,88.75
2022-08-17T23:26:43.920Z,88.50
2022-08-17T23:29:10.495Z,88.02
2022-08-17T23:31:38.482Z,87.95
2022-08-17T23:34:09.047Z,87.95
2022-08-17T23:36:35.980Z,88.46
2022-08-17T23:39:02.422Z,88.51
2022-08-17T23:41:31.862Z,89.20
2022-08-17T23:43:59.363Z,89.64
2022-08-17T23:46:25.819Z,90.08
2022-08-17T23:48:54.061Z,89.89
2022-08-17T23:51:23.853Z,89.32
2022-08-17T23:53:55.136Z,88.90
2022-08-17T23:56:26.035Z,89.34
2022-08-17T23:58:58.411Z,89.28
